Time;durP1;ratioP1;P1;durP2;ratioP2;P2;SDS_P1;SDS_P2;PMS_P1;PMS_P2;Temp;Humidity;BMP_temperature;BMP_pressure;BME280_temperature;BME280_humidity;BME280_pressure;Samples;Min_cycle;Max_cycle;Signal;HPM_P1;HPM_P2
2022/09/19 00:01:53;;;;;;;3.55;1.42;;;;;;;;;;5018284;28;88829;-64
2022/09/19 00:04:20;;;;;;;4.78;1.65;;;;;;;;;;5018594;28;87949;-63
2022/09/19 00:06:48;;;;;;;6.03;2.28;;;;;;;;;;5013866;28;88651;-63
2022/09/19 00:09:15;;;;;;;4.30;1.48;;;;;;;;;;5015684;28;89003;-63
2022/09/19 00:11:44;;;;;;;8.10;1.65;;;;;;;;;;5018849;28;87134;-63
2022/09/19 00:14:14;;;;;;;6.57;1.88;;;;;;;;;;5017608;28;88330;-63
2022/09/19 00:16:42;;;;;;;7.07;1.85;;;;;;;;;;5021685;28;88751;-63
2022/09/19 00:19:10;;;;;;;4.18;1.77;;;;;;;;;;5017824;28;88648;-63
2022/09/19 00:21:38;;;;;;;5.63;2.53;;;;;;;;;;5017984;28;89627;-63
2022/09/19 00:26:55;;;;;;;5.45;1.77;;;;;;;;;;5017736;28;88764;-63
2022/09/19 00:29:22;;;;;;;6.20;1.90;;;;;;;;;;5018394;28;88665;-63
2022/09/19 00:31:48;;;;;;;4.75;1.95;;;;;;;;;;5018192;28;87988;-63
2022/09/19 00:34:18;;;;;;;2.33;1.35;;;;;;;;;;5018284;28;88745;-63
2022/09/19 00:36:45;;;;;;;5.78;1.80;;;;;;;;;;5016455;28;88330;-63
2022/09/19 00:39:12;;;;;;;5.43;1.83;;;;;;;;;;5020908;28;88812;-63
2022/09/19 00:41:38;;;;;;;6.07;2.25;;;;;;;;;;5017022;28;88706;-63
2022/09/19 00:44:25;;;;;;;2.67;1.48;;;;;;;;;;5017623;28;89030;-63
2022/09/19 00:47:07;;;;;;;5.10;1.92;;;;;;;;;;5015757;28;89418;-63
2022/09/19 00:49:34;;;;;;;;;;;;;;;;;;5018411;28;88056;-63
2022/09/19 00:52:02;;;;;;;3.33;1.45;;;;;;;;;;5018022;28;117069;-63
2022/09/19 00:54:29;;;;;;;7.85;2.90;;;;;;;;;;5017127;28;88415;-63
2022/09/19 00:56:57;;;;;;;4.72;1.42;;;;;;;;;;5015483;28;89104;-64
2022/09/19 00:59:26;;;;;;;20.42;1.92;;;;;;;;;;5017974;28;87969;-63
2022/09/19 01:01:56;;;;;;;5.82;1.80;;;;;;;;;;5018483;28;90406;-64
2022/09/19 01:04:23;;;;;;;3.20;1.63;;;;;;;;;;5017688;28;88015;-63
2022/09/19 01:07:00;;;;;;;3.45;1.50;;;;;;;;;;5016411;28;90471;-63
2022/09/19 01:09:39;;;;;;;5.65;2.00;;;;;;;;;;5016480;28;89644;-63
2022/09/19 01:12:21;;;;;;;6.43;2.03;;;;;;;;;;5017747;28;88862;-63
2022/09/19 01:14:53;;;;;;;4.20;1.97;;;;;;;;;;5017367;28;87858;-63
2022/09/19 01:17:31;;;;;;;3.95;1.70;;;;;;;;;;5016885;28;89678;-63
2022/09/19 01:19:58;;;;;;;4.70;2.00;;;;;;;;;;5015688;28;89908;-63
2022/09/19 01:22:31;;;;;;;3.88;1.30;;;;;;;;;;5015563;28;88613;-63
2022/09/19 01:25:10;;;;;;;6.13;1.90;;;;;;;;;;5019057;28;90536;-63
2022/09/19 01:27:56;;;;;;;5.18;1.50;;;;;;;;;;5016040;28;90302;-63
2022/09/19 01:30:24;;;;;;;5.28;1.55;;;;;;;;;;5015244;28;88892;-64
2022/09/19 01:33:01;;;;;;;5.75;1.60;;;;;;;;;;5015908;28;87982;-63
2022/09/19 01:35:29;;;;;;;4.47;1.55;;;;;;;;;;5015474;28;88770;-63
2022/09/19 01:38:03;;;;;;;4.93;1.83;;;;;;;;;;5014956;28;88810;-63
2022/09/19 01:40:30;;;;;;;5.35;1.98;;;;;;;;;;5017796;28;88126;-63
2022/09/19 01:43:00;;;;;;;3.67;1.70;;;;;;;;;;5035304;28;90480;-63
2022/09/19 01:45:31;;;;;;;5.95;1.50;;;;;;;;;;5035532;28;88520;-63
2022/09/19 01:48:16;;;;;;;5.57;1.48;;;;;;;;;;5038052;28;87944;-63
2022/09/19 01:50:46;;;;;;;2.97;1.75;;;;;;;;;;5015119;28;88755;-63
2022/09/19 01:53:15;;;;;;;4.97;1.73;;;;;;;;;;5017741;28;87739;-64
2022/09/19 01:56:40;;;;;;;4.22;1.73;;;;;;;;;;5017131;28;87998;-63
2022/09/19 01:59:11;;;;;;;5.00;2.15;;;;;;;;;;5015591;28;88564;-63
2022/09/19 02:01:48;;;;;;;3.88;1.88;;;;;;;;;;5015310;28;90030;-63
2022/09/19 02:04:21;;;;;;;4.07;1.63;;;;;;;;;;5015305;28;90954;-63
2022/09/19 02:06:51;;;;;;;5.15;1.73;;;;;;;;;;5019421;28;88580;-63
2022/09/19 02:09:20;;;;;;;4.75;1.75;;;;;;;;;;5017567;28;87963;-63
2022/09/19 02:11:51;;;;;;;3.85;1.63;;;;;;;;;;4998071;28;88648;-63
2022/09/19 02:14:22;;;;;;;2.73;1.43;;;;;;;;;;5001091;28;88182;-63
2022/09/19 02:17:06;;;;;;;5.30;1.90;;;;;;;;;;5020388;28;89113;-63
2022/09/19 02:19:43;;;;;;;6.13;1.75;;;;;;;;;;5018410;28;88139;-63
2022/09/19 02:22:20;;;;;;;5.25;1.90;;;;;;;;;;5018889;28;88286;-63
2022/09/19 02:24:47;;;;;;;2.40;1.65;;;;;;;;;;5018292;28;90532;-63
2022/09/19 02:27:17;;;;;;;6.60;1.67;;;;;;;;;;5018649;28;89663;-64
2022/09/19 02:29:46;;;;;;;6.82;1.98;;;;;;;;;;5018357;28;89591;-63
2022/09/19 02:32:16;;;;;;;3.08;1.75;;;;;;;;;;5022303;28;88595;-63
2022/09/19 02:34:43;;;;;;;2.83;1.42;;;;;;;;;;5017774;28;89834;-63
2022/09/19 02:37:32;;;;;;;3.10;1.30;;;;;;;;;;5018731;28;89271;-64
2022/09/19 02:40:02;;;;;;;7.72;1.52;;;;;;;;;;5017702;28;89671;-63
2022/09/19 02:42:48;;;;;;;4.70;1.70;;;;;;;;;;5018360;28;88012;-63
2022/09/19 02:45:28;;;;;;;2.88;1.55;;;;;;;;;;5019079;28;87350;-63
2022/09/19 02:48:03;;;;;;;4.10;1.80;;;;;;;;;;5017469;28;88758;-63
2022/09/19 02:50:31;;;;;;;3.93;1.60;;;;;;;;;;5018332;28;88175;-63
2022/09/19 02:52:59;;;;;;;3.92;1.75;;;;;;;;;;5017851;28;89363;-63
2022/09/19 02:55:27;;;;;;;6.38;1.67;;;;;;;;;;5020747;28;88798;-64
2022/09/19 02:57:57;;;;;;;4.63;1.95;;;;;;;;;;5015874;28;90471;-63
2022/09/19 03:00:25;;;;;;;2.80;1.60;;;;;;;;;;5018336;28;90121;-63
2022/09/19 03:02:57;;;;;;;6.30;1.50;;;;;;;;;;5017284;28;88059;-63
2022/09/19 03:05:34;;;;;;;3.35;1.45;;;;;;;;;;5018925;28;88011;-63
2022/09/19 03:08:03;;;;;;;4.70;1.58;;;;;;;;;;5016924;28;90739;-64
2022/09/19 03:10:38;;;;;;;2.45;1.63;;;;;;;;;;5018324;28;89812;-63
2022/09/19 03:13:14;;;;;;;1.95;1.38;;;;;;;;;;5018208;28;88299;-63
2022/09/19 03:15:50;;;;;;;3.53;1.65;;;;;;;;;;5018725;28;88840;-63
2022/09/19 03:18:26;;;;;;;4.82;1.70;;;;;;;;;;5020312;28;88755;-63
2022/09/19 03:20:58;;;;;;;2.92;1.80;;;;;;;;;;5017382;28;88933;-63
2022/09/19 03:23:27;;;;;;;3.88;1.52;;;;;;;;;;5017452;28;89529;-63
2022/09/19 03:25:53;;;;;;;6.40;1.33;;;;;;;;;;5017715;28;90664;-63
2022/09/19 03:28:21;;;;;;;5.45;2.10;;;;;;;;;;5017714;28;89006;-63
2022/09/19 03:30:49;;;;;;;3.47;1.75;;;;;;;;;;5016755;28;88000;-64
2022/09/19 03:33:16;;;;;;;3.28;1.55;;;;;;;;;;5018053;28;88504;-63
2022/09/19 03:35:44;;;;;;;6.60;2.20;;;;;;;;;;5017823;28;89812;-63
2022/09/19 03:38:11;;;;;;;5.40;1.90;;;;;;;;;;5016967;28;88689;-63
2022/09/19 03:40:38;;;;;;;6.03;1.70;;;;;;;;;;5021097;28;88536;-63
2022/09/19 03:43:06;;;;;;;3.15;1.58;;;;;;;;;;5018339;28;88652;-63
2022/09/19 03:45:33;;;;;;;4.72;1.60;;;;;;;;;;5017005;28;89244;-63
2022/09/19 03:47:59;;;;;;;2.97;1.83;;;;;;;;;;5016943;28;88973;-64
2022/09/19 03:50:26;;;;;;;5.35;1.58;;;;;;;;;;5016930;28;89136;-63
2022/09/19 03:53:07;;;;;;;1.90;1.20;;;;;;;;;;5017155;28;90992;-63
2022/09/19 03:55:37;;;;;;;2.67;1.45;;;;;;;;;;5017163;28;88774;-63
2022/09/19 03:58:05;;;;;;;4.40;1.52;;;;;;;;;;5016729;28;88543;-64
2022/09/19 04:00:31;;;;;;;4.65;1.60;;;;;;;;;;5017305;28;88775;-63
2022/09/19 04:02:57;;;;;;;2.60;1.60;;;;;;;;;;4998457;28;88108;-63
2022/09/19 04:05:26;;;;;;;5.25;1.90;;;;;;;;;;4996748;28;88601;-63
2022/09/19 04:07:54;;;;;;;3.10;1.40;;;;;;;;;;4996244;28;89859;-64
2022/09/19 04:10:21;;;;;;;4.55;1.55;;;;;;;;;;4997136;28;87930;-64
2022/09/19 04:12:48;;;;;;;2.47;1.33;;;;;;;;;;4997863;28;88469;-63
2022/09/19 04:15:15;;;;;;;3.17;1.38;;;;;;;;;;5014687;28;88746;-63
2022/09/19 04:17:42;;;;;;;4.40;1.65;;;;;;;;;;5016955;28;88128;-63
2022/09/19 04:20:15;;;;;;;;;;;;;;;;;;5016552;28;88709;-63
2022/09/19 04:23:02;;;;;;;4.68;1.38;;;;;;;;;;5022169;28;88362;-63
2022/09/19 04:26:06;;;;;;;4.30;2.28;;;;;;;;;;4975592;28;88225;-63
2022/09/19 04:28:39;;;;;;;6.20;1.60;;;;;;;;;;4975670;28;88313;-63
2022/09/19 04:31:08;;;;;;;4.68;1.30;;;;;;;;;;4991125;28;88814;-63
2022/09/19 04:33:36;;;;;;;3.22;1.23;;;;;;;;;;5035641;28;88864;-63
2022/09/19 04:36:05;;;;;;;3.08;1.40;;;;;;;;;;5036816;28;90655;-63
2022/09/19 04:38:33;;;;;;;4.90;1.38;;;;;;;;;;5037186;28;88432;-63
2022/09/19 04:41:00;;;;;;;5.10;1.67;;;;;;;;;;5035899;28;88573;-63
2022/09/19 04:43:29;;;;;;;4.28;1.67;;;;;;;;;;5036460;28;90632;-63
2022/09/19 04:46:09;;;;;;;4.38;1.42;;;;;;;;;;5039796;28;87989;-63
2022/09/19 04:48:45;;;;;;;4.55;1.60;;;;;;;;;;5028357;28;89560;-64
2022/09/19 04:51:12;;;;;;;4.28;2.10;;;;;;;;;;5017308;28;87684;-63
2022/09/19 04:53:38;;;;;;;5.10;2.03;;;;;;;;;;5017166;28;87936;-63
2022/09/19 04:56:07;;;;;;;3.70;1.40;;;;;;;;;;5016537;28;88641;-63
2022/09/19 04:58:37;;;;;;;3.80;1.42;;;;;;;;;;5015937;28;88836;-63
2022/09/19 05:01:06;;;;;;;3.95;1.70;;;;;;;;;;5015357;28;89161;-63
2022/09/19 05:03:35;;;;;;;2.30;1.40;;;;;;;;;;5016620;28;90869;-63
2022/09/19 05:06:02;;;;;;;5.22;1.17;;;;;;;;;;5016489;28;89662;-63
2022/09/19 05:08:31;;;;;;;4.03;1.60;;;;;;;;;;5018595;28;91070;-63
2022/09/19 05:11:10;;;;;;;6.28;2.17;;;;;;;;;;5016443;28;87967;-63
2022/09/19 05:13:38;;;;;;;4.63;1.33;;;;;;;;;;5015612;28;90523;-63
2022/09/19 05:16:06;;;;;;;3.08;1.40;;;;;;;;;;5015989;28;87996;-63
2022/09/19 05:18:37;;;;;;;4.28;1.63;;;;;;;;;;5016040;28;88692;-63
2022/09/19 05:21:06;;;;;;;3.50;1.73;;;;;;;;;;5016171;28;88720;-63
2022/09/19 05:23:35;;;;;;;3.38;1.45;;;;;;;;;;5015108;28;91592;-63
2022/09/19 05:26:03;;;;;;;5.47;1.63;;;;;;;;;;5016032;28;87985;-63
2022/09/19 05:28:30;;;;;;;3.08;1.30;;;;;;;;;;5015951;28;88642;-63
2022/09/19 05:30:57;;;;;;;2.22;1.40;;;;;;;;;;5017804;28;88753;-63
2022/09/19 05:33:27;;;;;;;3.92;1.08;;;;;;;;;;5016182;28;90376;-63
2022/09/19 05:35:59;;;;;;;5.38;1.48;;;;;;;;;;5010205;28;88794;-63
2022/09/19 05:38:52;;;;;;;3.90;1.60;;;;;;;;;;5014793;28;89071;-63
2022/09/19 05:41:38;;;;;;;3.33;1.50;;;;;;;;;;5019500;28;88099;-62
2022/09/19 05:44:18;;;;;;;1.80;1.13;;;;;;;;;;5018464;28;89568;-63
2022/09/19 05:46:52;;;;;;;3.85;1.42;;;;;;;;;;5019234;28;88296;-63
2022/09/19 05:49:19;;;;;;;11.48;1.40;;;;;;;;;;5005996;28;90844;-66
2022/09/19 05:51:45;;;;;;;6.32;2.17;;;;;;;;;;5014199;28;92097;-64
2022/09/19 05:54:17;;;;;;;4.37;1.73;;;;;;;;;;5012944;28;89646;-63
2022/09/19 05:56:54;;;;;;;3.25;1.30;;;;;;;;;;5011910;28;91254;-64
2022/09/19 05:59:21;;;;;;;5.28;1.30;;;;;;;;;;5000173;28;88485;-64
2022/09/19 06:01:49;;;;;;;4.25;1.50;;;;;;;;;;4999187;28;90625;-63
2022/09/19 06:04:34;;;;;;;4.03;1.30;;;;;;;;;;4996722;28;89597;-63
2022/09/19 06:07:06;;;;;;;2.08;1.25;;;;;;;;;;4999219;28;89672;-64
2022/09/19 06:09:33;;;;;;;4.10;1.40;;;;;;;;;;4999409;28;87884;-64
2022/09/19 06:11:59;;;;;;;6.50;1.70;;;;;;;;;;4998007;28;88054;-64
2022/09/19 06:14:27;;;;;;;3.65;1.23;;;;;;;;;;5002702;28;90018;-64
2022/09/19 06:16:53;;;;;;;2.70;2.13;;;;;;;;;;5010645;28;90683;-64
2022/09/19 06:19:23;;;;;;;2.63;1.23;;;;;;;;;;5019676;28;88007;-64
2022/09/19 06:22:03;;;;;;;4.63;1.60;;;;;;;;;;5018933;28;88566;-64
2022/09/19 06:24:30;;;;;;;2.88;1.95;;;;;;;;;;5018701;28;88788;-64
2022/09/19 06:26:57;;;;;;;2.97;1.20;;;;;;;;;;5007139;28;88266;-64
2022/09/19 06:29:25;;;;;;;2.65;1.50;;;;;;;;;;5015182;28;88601;-64
2022/09/19 06:32:17;;;;;;;4.47;1.55;;;;;;;;;;5010518;28;88163;-64
2022/09/19 06:34:44;;;;;;;2.72;1.30;;;;;;;;;;5018376;28;88711;-64
2022/09/19 06:37:24;;;;;;;4.28;1.67;;;;;;;;;;5021881;28;90017;-64
2022/09/19 06:39:52;;;;;;;3.22;1.50;;;;;;;;;;5003744;28;90480;-64
2022/09/19 06:42:39;;;;;;;2.92;1.63;;;;;;;;;;5000001;28;89271;-64
2022/09/19 06:45:18;;;;;;;2.28;1.30;;;;;;;;;;5015186;28;88996;-64
2022/09/19 06:48:13;;;;;;;2.08;1.48;;;;;;;;;;4997952;28;87974;-64
2022/09/19 06:50:47;;;;;;;3.08;1.30;;;;;;;;;;5000065;28;90353;-64
2022/09/19 06:53:16;;;;;;;9.05;2.30;;;;;;;;;;5020221;28;91167;-71
2022/09/19 06:55:43;;;;;;;8.05;1.48;;;;;;;;;;5011987;28;91255;-66
2022/09/19 06:58:17;;;;;;;5.38;1.42;;;;;;;;;;5000058;28;91080;-64
2022/09/19 07:00:45;;;;;;;8.38;1.75;;;;;;;;;;5000457;28;90778;-63
2022/09/19 07:03:15;;;;;;;6.90;1.75;;;;;;;;;;5000662;28;91004;-63
2022/09/19 07:05:47;;;;;;;4.47;1.70;;;;;;;;;;5006168;28;89571;-63
2022/09/19 07:08:21;;;;;;;4.28;2.10;;;;;;;;;;5005243;28;88974;-63
2022/09/19 07:10:48;;;;;;;11.20;1.88;;;;;;;;;;4999711;28;87952;-65
2022/09/19 07:13:16;;;;;;;13.60;2.25;;;;;;;;;;4996413;28;89666;-64
2022/09/19 07:15:45;;;;;;;8.10;1.98;;;;;;;;;;5050593;27;88439;-63
2022/09/19 07:18:13;;;;;;;6.72;1.90;;;;;;;;;;5003619;28;89739;-62
2022/09/19 07:20:41;;;;;;;11.98;2.75;;;;;;;;;;4999610;28;89003;-65
2022/09/19 07:23:17;;;;;;;9.10;2.13;;;;;;;;;;4999051;28;88738;-63
2022/09/19 07:26:03;;;;;;;11.55;1.80;;;;;;;;;;4996745;28;88651;-63
2022/09/19 07:28:32;;;;;;;6.72;2.05;;;;;;;;;;5029940;27;88730;-64
2022/09/19 07:31:00;;;;;;;8.90;1.95;;;;;;;;;;4999948;28;90566;-64
2022/09/19 07:33:28;;;;;;;5.68;1.83;;;;;;;;;;4997782;28;88495;-64
2022/09/19 07:35:55;;;;;;;14.55;2.75;;;;;;;;;;4996690;28;88142;-64
2022/09/19 07:38:22;;;;;;;7.25;2.50;;;;;;;;;;4999613;28;89170;-64
2022/09/19 07:41:09;;;;;;;11.15;2.45;;;;;;;;;;5004791;28;90614;-64
2022/09/19 07:43:44;;;;;;;13.40;2.10;;;;;;;;;;5009068;28;90219;-64
2022/09/19 07:46:36;;;;;;;10.38;2.10;;;;;;;;;;5001851;27;88305;-65
2022/09/19 07:49:25;;;;;;;12.40;2.47;;;;;;;;;;5031696;27;87696;-64
2022/09/19 07:52:04;;;;;;;4.35;1.88;;;;;;;;;;4999180;28;89330;-64
2022/09/19 07:54:31;;;;;;;7.63;1.90;;;;;;;;;;5015267;28;90865;-64
2022/09/19 07:56:59;;;;;;;14.95;2.08;;;;;;;;;;4999647;28;89038;-64
2022/09/19 07:59:25;;;;;;;7.60;1.65;;;;;;;;;;4998413;28;90003;-63
2022/09/19 08:01:58;;;;;;;11.50;2.15;;;;;;;;;;5000533;28;88708;-62
2022/09/19 08:04:32;;;;;;;6.43;1.73;;;;;;;;;;4998954;28;88267;-63
2022/09/19 08:06:59;;;;;;;7.40;1.55;;;;;;;;;;5012606;28;90559;-64
2022/09/19 08:09:25;;;;;;;10.65;2.70;;;;;;;;;;5001534;28;89086;-63
2022/09/19 08:12:06;;;;;;;13.52;1.65;;;;;;;;;;4997557;28;88021;-63
2022/09/19 08:14:37;;;;;;;9.88;1.88;;;;;;;;;;4999123;28;87450;-65
2022/09/19 08:17:04;;;;;;;9.70;2.38;;;;;;;;;;4997467;28;88017;-65
2022/09/19 08:19:31;;;;;;;12.55;2.50;;;;;;;;;;4997495;28;88876;-66
2022/09/19 08:21:57;;;;;;;6.75;1.42;;;;;;;;;;5004774;28;91327;-64
2022/09/19 08:24:28;;;;;;;6.38;1.90;;;;;;;;;;5005292;28;88221;-64
2022/09/19 08:27:03;;;;;;;10.82;1.88;;;;;;;;;;4999525;28;88525;-63
2022/09/19 08:29:31;;;;;;;7.65;1.70;;;;;;;;;;4999916;28;88676;-64
2022/09/19 08:32:11;;;;;;;6.70;2.58;;;;;;;;;;4994392;28;89867;-63
2022/09/19 08:34:38;;;;;;;9.95;1.90;;;;;;;;;;5006522;28;89943;-63
2022/09/19 08:37:06;;;;;;;13.68;2.03;;;;;;;;;;4997122;28;88807;-63
2022/09/19 08:39:36;;;;;;;10.48;2.30;;;;;;;;;;5003833;28;89463;-62
2022/09/19 08:42:09;;;;;;;8.27;1.65;;;;;;;;;;5004744;28;90472;-62
2022/09/19 08:44:39;;;;;;;7.57;1.90;;;;;;;;;;5012633;28;89650;-62
2022/09/19 08:47:09;;;;;;;5.90;1.52;;;;;;;;;;5012080;28;89563;-63
2022/09/19 08:49:43;;;;;;;5.63;1.73;;;;;;;;;;5006850;28;90657;-62
2022/09/19 08:52:13;;;;;;;6.60;2.03;;;;;;;;;;5001553;28;90468;-63
2022/09/19 08:54:40;;;;;;;6.43;1.98;;;;;;;;;;5015493;28;89703;-63
2022/09/19 08:57:26;;;;;;;4.40;1.73;;;;;;;;;;4999170;28;88773;-63
2022/09/19 09:00:07;;;;;;;9.18;2.05;;;;;;;;;;5012115;28;91358;-63
2022/09/19 09:02:44;;;;;;;5.63;1.63;;;;;;;;;;4996721;28;90834;-63
2022/09/19 09:05:41;;;;;;;4.05;1.35;;;;;;;;;;5001131;28;88467;-62
2022/09/19 09:08:08;;;;;;;;;;;;;;;;;;5004083;28;89687;-63
2022/09/19 09:10:55;;;;;;;4.18;1.50;;;;;;;;;;5031561;28;88663;-63
2022/09/19 09:13:37;;;;;;;5.20;1.60;;;;;;;;;;5012124;28;88863;-63
2022/09/19 09:16:29;;;;;;;6.32;1.98;;;;;;;;;;5019231;28;91763;-62
2022/09/19 09:19:17;;;;;;;5.55;1.70;;;;;;;;;;5000070;28;89447;-62
2022/09/19 09:21:52;;;;;;;6.10;1.13;;;;;;;;;;5015795;28;88691;-64
2022/09/19 09:24:27;;;;;;;4.82;1.25;;;;;;;;;;5012742;28;88875;-64
2022/09/19 09:27:26;;;;;;;3.85;1.65;;;;;;;;;;5013174;28;88015;-64
2022/09/19 09:30:02;;;;;;;4.00;1.60;;;;;;;;;;4998538;28;89241;-63
2022/09/19 09:32:35;;;;;;;6.45;1.75;;;;;;;;;;5020692;28;88011;-63
2022/09/19 09:35:12;;;;;;;4.82;1.98;;;;;;;;;;5013223;28;88571;-63
2022/09/19 09:37:46;;;;;;;10.13;1.90;;;;;;;;;;5023471;28;88621;-63
2022/09/19 09:41:44;;;;;;;4.35;1.30;;;;;;;;;;5003764;28;89493;-63
2022/09/19 09:43:14;;;;;;;5.13;1.50;;;;;;;;;;5000234;28;89432;-63
2022/09/19 09:45:45;;;;;;;5.70;1.75;;;;;;;;;;4999369;28;91046;-63
2022/09/19 09:48:34;;;;;;;4.60;1.60;;;;;;;;;;5000678;28;88151;-63
2022/09/19 09:51:15;;;;;;;4.10;1.40;;;;;;;;;;4998588;28;88607;-63
2022/09/19 09:53:53;;;;;;;4.00;1.60;;;;;;;;;;5004595;28;88575;-63
2022/09/19 09:56:41;;;;;;;5.53;1.50;;;;;;;;;;4998781;28;88811;-63
2022/09/19 10:03:34;;;;;;;2.45;1.23;;;;;;;;;;5001689;28;90374;-63
2022/09/19 10:05:14;;;;;;;3.08;1.08;;;;;;;;;;5018395;28;88876;-63
2022/09/19 10:07:58;;;;;;;4.95;1.40;;;;;;;;;;5018542;28;92063;-63
2022/09/19 10:10:27;;;;;;;4.22;1.48;;;;;;;;;;5017306;28;90288;-63
2022/09/19 10:12:58;;;;;;;2.65;1.50;;;;;;;;;;5000666;28;88504;-63
2022/09/19 10:15:31;;;;;;;2.67;1.20;;;;;;;;;;5015684;28;88728;-63
2022/09/19 10:18:09;;;;;;;7.90;1.60;;;;;;;;;;4998336;28;89730;-63
2022/09/19 10:20:49;;;;;;;3.22;1.25;;;;;;;;;;4998810;28;89546;-63
2022/09/19 10:23:23;;;;;;;6.70;1.70;;;;;;;;;;5000861;28;89364;-63
2022/09/19 10:25:59;;;;;;;12.45;1.90;;;;;;;;;;4997417;28;90529;-64
2022/09/19 10:28:30;;;;;;;8.25;2.00;;;;;;;;;;5037159;27;89592;-64
2022/09/19 10:31:27;;;;;;;9.38;1.73;;;;;;;;;;4982501;28;88110;-64
2022/09/19 10:34:04;;;;;;;3.78;1.30;;;;;;;;;;4998113;28;88767;-64
2022/09/19 10:36:34;;;;;;;5.32;1.63;;;;;;;;;;5004514;28;90527;-64
2022/09/19 10:39:09;;;;;;;6.85;2.42;;;;;;;;;;5005096;28;89091;-65
2022/09/19 10:41:37;;;;;;;6.63;1.58;;;;;;;;;;5000589;28;88536;-65
2022/09/19 10:44:09;;;;;;;9.68;1.38;;;;;;;;;;5014863;28;91001;-66
2022/09/19 10:46:43;;;;;;;3.22;1.25;;;;;;;;;;4997651;28;88123;-68
2022/09/19 10:49:38;;;;;;;6.97;1.45;;;;;;;;;;5002891;28;88564;-65
2022/09/19 10:52:06;;;;;;;7.57;1.20;;;;;;;;;;5017553;28;88804;-66
2022/09/19 10:54:38;;;;;;;6.43;1.50;;;;;;;;;;5010021;28;88245;-65
2022/09/19 10:57:26;;;;;;;9.38;1.40;;;;;;;;;;4997959;28;90633;-65
2022/09/19 10:59:54;;;;;;;6.80;1.20;;;;;;;;;;5029989;27;88773;-65
2022/09/19 11:02:28;;;;;;;2.47;1.15;;;;;;;;;;5006247;28;89234;-64
2022/09/19 11:05:00;;;;;;;3.50;1.10;;;;;;;;;;5011401;28;90685;-65
2022/09/19 11:07:33;;;;;;;4.75;1.05;;;;;;;;;;4996992;28;88064;-65
2022/09/19 11:10:25;;;;;;;2.15;1.60;;;;;;;;;;5031809;28;89038;-65
2022/09/19 11:13:04;;;;;;;3.22;1.10;;;;;;;;;;5003027;28;88901;-65
2022/09/19 11:15:33;;;;;;;7.18;1.73;;;;;;;;;;5004798;28;88585;-65
2022/09/19 11:18:19;;;;;;;3.92;1.30;;;;;;;;;;4998069;28;89857;-66
2022/09/19 11:21:05;;;;;;;4.15;1.15;;;;;;;;;;5013228;28;88353;-66
2022/09/19 11:23:44;;;;;;;7.78;1.70;;;;;;;;;;5015054;28;89518;-65
2022/09/19 11:26:36;;;;;;;9.85;1.50;;;;;;;;;;5015584;28;90760;-65
2022/09/19 11:29:04;;;;;;;3.83;1.50;;;;;;;;;;5017256;28;89752;-65
2022/09/19 11:31:47;;;;;;;5.85;1.30;;;;;;;;;;5012475;28;88858;-65
2022/09/19 11:34:41;;;;;;;8.25;1.52;;;;;;;;;;5016628;27;88765;-65
2022/09/19 11:37:27;;;;;;;3.25;1.30;;;;;;;;;;5009530;28;89526;-65
2022/09/19 11:39:54;;;;;;;3.40;1.15;;;;;;;;;;5010288;28;88773;-65
2022/09/19 11:42:40;;;;;;;4.13;1.30;;;;;;;;;;5008738;28;88150;-65
2022/09/19 11:45:12;;;;;;;8.57;1.60;;;;;;;;;;5001346;28;90492;-65
2022/09/19 11:48:01;;;;;;;36.75;4.25;;;;;;;;;;5003414;28;88948;-70
2022/09/19 11:50:39;;;;;;;36.60;2.38;;;;;;;;;;5009113;28;89149;-68
2022/09/19 11:53:23;;;;;;;39.08;3.00;;;;;;;;;;5009497;28;89297;-66
2022/09/19 11:56:05;;;;;;;13.30;2.00;;;;;;;;;;5008658;28;89583;-67
2022/09/19 11:58:48;;;;;;;24.45;1.60;;;;;;;;;;5022489;28;88729;-66
2022/09/19 12:01:15;;;;;;;;;;;;;;;;;;5003344;28;88062;-67
2022/09/19 12:03:52;;;;;;;8.63;1.60;;;;;;;;;;5003666;28;117182;-67
2022/09/19 12:06:31;;;;;;;11.60;1.67;;;;;;;;;;4998341;28;90718;-67
2022/09/19 12:09:11;;;;;;;17.08;1.80;;;;;;;;;;5000139;28;88774;-66
2022/09/19 12:11:47;;;;;;;15.40;1.70;;;;;;;;;;5005869;28;89788;-67
2022/09/19 12:14:26;;;;;;;10.38;2.00;;;;;;;;;;5014673;28;89461;-68
2022/09/19 12:16:55;;;;;;;7.82;1.30;;;;;;;;;;5000211;28;89651;-67
2022/09/19 12:19:25;;;;;;;4.50;1.80;;;;;;;;;;5011102;28;88796;-68
2022/09/19 12:21:54;;;;;;;7.03;1.20;;;;;;;;;;4996636;28;90337;-69
2022/09/19 12:27:22;;;;;;;6.38;1.10;;;;;;;;;;5011925;28;90368;-67
2022/09/19 12:29:57;;;;;;;3.75;1.30;;;;;;;;;;5004352;28;88848;-67
2022/09/19 12:32:23;;;;;;;6.33;1.30;;;;;;;;;;5005512;28;88158;-67
2022/09/19 12:34:59;;;;;;;11.13;1.52;;;;;;;;;;5005477;28;88045;-67
2022/09/19 12:37:35;;;;;;;5.55;1.50;;;;;;;;;;5021776;27;88115;-68
2022/09/19 12:40:22;;;;;;;2.92;1.10;;;;;;;;;;5004017;28;88172;-68
2022/09/19 12:42:52;;;;;;;5.20;1.30;;;;;;;;;;5015962;28;88449;-68
2022/09/19 12:45:25;;;;;;;5.53;1.30;;;;;;;;;;5013382;28;89620;-68
2022/09/19 12:48:10;;;;;;;2.75;1.23;;;;;;;;;;5014799;28;88291;-67
2022/09/19 12:50:49;;;;;;;3.92;1.30;;;;;;;;;;4999609;28;90116;-68
2022/09/19 12:53:24;;;;;;;4.00;1.23;;;;;;;;;;5013943;28;89549;-68
2022/09/19 12:55:56;;;;;;;2.70;1.15;;;;;;;;;;5011161;28;89742;-67
2022/09/19 12:58:30;;;;;;;5.55;1.20;;;;;;;;;;5002297;28;88874;-68
2022/09/19 13:01:18;;;;;;;3.67;1.50;;;;;;;;;;5009888;28;88250;-68
2022/09/19 13:03:47;;;;;;;5.28;1.50;;;;;;;;;;5015217;28;89623;-68
2022/09/19 13:06:17;;;;;;;4.72;1.40;;;;;;;;;;5007163;28;88008;-68
2022/09/19 13:08:52;;;;;;;4.78;1.27;;;;;;;;;;5000697;28;89500;-67
2022/09/19 13:11:24;;;;;;;2.38;1.42;;;;;;;;;;4996981;28;89696;-68
2022/09/19 13:13:56;;;;;;;4.22;1.30;;;;;;;;;;5002023;28;88189;-68
2022/09/19 13:16:30;;;;;;;4.75;1.88;;;;;;;;;;4996911;28;88132;-68
2022/09/19 13:24:40;;;;;;;2.67;1.45;;;;;;;;;;5000568;28;88602;-68
2022/09/19 13:27:07;;;;;;;5.40;1.23;;;;;;;;;;4996677;28;89017;-68
2022/09/19 13:29:36;;;;;;;6.05;1.50;;;;;;;;;;4998068;28;87864;-68
2022/09/19 13:32:04;;;;;;;4.97;1.85;;;;;;;;;;5000369;28;87970;-68
2022/09/19 13:34:53;;;;;;;2.33;1.10;;;;;;;;;;5010376;28;89956;-68
2022/09/19 13:37:25;;;;;;;3.33;1.27;;;;;;;;;;5015527;28;88899;-68
2022/09/19 13:40:15;;;;;;;3.08;1.40;;;;;;;;;;4996700;28;89029;-66
2022/09/19 13:42:47;;;;;;;8.68;1.70;;;;;;;;;;4996178;28;88015;-67
2022/09/19 13:45:22;;;;;;;3.72;1.15;;;;;;;;;;5005166;28;88411;-67
2022/09/19 13:47:52;;;;;;;3.80;1.25;;;;;;;;;;4997431;28;89282;-67
2022/09/19 13:50:18;;;;;;;3.95;1.58;;;;;;;;;;4996027;28;88030;-67
2022/09/19 13:52:46;;;;;;;3.60;1.50;;;;;;;;;;5004326;28;88390;-67
2022/09/19 13:55:12;;;;;;;1.88;1.05;;;;;;;;;;5018297;28;87370;-67
2022/09/19 13:57:41;;;;;;;1.95;1.10;;;;;;;;;;5004472;28;88632;-67
2022/09/19 14:00:27;;;;;;;2.05;1.13;;;;;;;;;;4997193;28;88717;-67
2022/09/19 14:03:01;;;;;;;5.75;1.20;;;;;;;;;;4999974;28;88925;-66
2022/09/19 14:05:29;;;;;;;1.23;0.90;;;;;;;;;;5005727;28;88473;-67
2022/09/19 14:07:57;;;;;;;4.32;1.50;;;;;;;;;;5006768;28;88993;-67
2022/09/19 14:10:43;;;;;;;5.70;1.30;;;;;;;;;;4998478;28;90008;-68
2022/09/19 14:13:26;;;;;;;9.93;0.90;;;;;;;;;;4999749;28;88773;-68
2022/09/19 14:15:59;;;;;;;2.72;1.20;;;;;;;;;;4999830;28;88000;-70
2022/09/19 14:18:37;;;;;;;8.75;1.63;;;;;;;;;;5010220;28;88213;-70
2022/09/19 14:21:26;;;;;;;10.30;1.42;;;;;;;;;;5001264;28;87482;-70
2022/09/19 14:24:01;;;;;;;6.10;1.25;;;;;;;;;;4983398;28;88114;-70
2022/09/19 14:26:46;;;;;;;3.58;1.40;;;;;;;;;;4999833;28;88545;-68
2022/09/19 14:29:38;;;;;;;2.83;1.33;;;;;;;;;;5006758;28;90831;-71
2022/09/19 14:32:07;;;;;;;13.35;1.27;;;;;;;;;;5005345;28;88056;-72
2022/09/19 14:34:47;;;;;;;7.43;1.30;;;;;;;;;;4999955;28;88648;-71
2022/09/19 14:37:32;;;;;;;5.20;1.35;;;;;;;;;;4999199;28;89120;-71
2022/09/19 14:40:22;;;;;;;1.85;1.00;;;;;;;;;;4997976;28;88300;-71
2022/09/19 14:42:56;;;;;;;4.72;1.23;;;;;;;;;;5013412;28;88661;-72
2022/09/19 14:45:24;;;;;;;5.47;1.60;;;;;;;;;;4999411;28;89672;-71
2022/09/19 14:47:53;;;;;;;4.88;1.70;;;;;;;;;;4995843;28;90857;-71
2022/09/19 14:50:22;;;;;;;5.05;1.25;;;;;;;;;;4997298;28;90449;-72
2022/09/19 14:52:54;;;;;;;3.10;1.50;;;;;;;;;;5011059;28;90616;-72
2022/09/19 14:55:23;;;;;;;5.65;1.33;;;;;;;;;;5004462;28;88749;-72
2022/09/19 14:57:52;;;;;;;7.40;1.42;;;;;;;;;;5012595;28;89018;-71
2022/09/19 15:00:27;;;;;;;8.38;1.70;;;;;;;;;;5019331;28;88349;-72
2022/09/19 15:02:55;;;;;;;4.78;1.83;;;;;;;;;;5020679;28;88628;-71
2022/09/19 15:05:29;;;;;;;5.68;1.95;;;;;;;;;;5000603;28;89794;-71
2022/09/19 15:07:58;;;;;;;6.10;1.63;;;;;;;;;;4998919;28;88904;-72
2022/09/19 15:10:25;;;;;;;5.50;1.73;;;;;;;;;;5014180;28;89169;-72
2022/09/19 15:12:51;;;;;;;5.80;1.60;;;;;;;;;;5013471;28;88921;-71
2022/09/19 15:15:18;;;;;;;5.57;1.52;;;;;;;;;;4997209;28;88057;-71
2022/09/19 15:17:44;;;;;;;5.05;1.58;;;;;;;;;;5001404;28;88829;-71
2022/09/19 15:20:12;;;;;;;5.43;1.75;;;;;;;;;;4997652;28;89885;-71
2022/09/19 15:22:46;;;;;;;4.40;1.80;;;;;;;;;;5012356;28;90271;-72
2022/09/19 15:25:20;;;;;;;3.67;1.77;;;;;;;;;;4999955;28;88764;-72
2022/09/19 15:27:57;;;;;;;4.70;1.42;;;;;;;;;;4999466;28;89162;-72
2022/09/19 15:30:25;;;;;;;6.10;2.08;;;;;;;;;;5000219;28;89930;-72
2022/09/19 15:32:53;;;;;;;4.78;2.05;;;;;;;;;;4999615;28;89603;-72
2022/09/19 15:35:20;;;;;;;3.45;1.48;;;;;;;;;;5003924;28;88489;-72
2022/09/19 15:37:48;;;;;;;4.63;1.88;;;;;;;;;;4997960;28;89878;-71